Hauptseite
METAR-TAF:

METAR-TAF

Flughäfen :

Militärflugplatz Alcantarilla

Murcia, Spanien

Breite: 37-57N, Länge: 001-14W, Höhe: 75 m

METAR: fehlend

Zeit: 22:56 (21:56 UTC)

Prognose

Neuester Wetterbericht von vor 7 Stunden und 56 Minuten, um 14:00 UTC
Gültige Prognose vom 07 um 15 UTC bis 07 um 24 UTC
Wind 2 kt aus unterschiedlichen Richtungen
Sichtweite 10 km oder mehr
keine Wolken unter 1500 m und keine Kumulonimbus oder Gewitterwolken

TAF: LERI 071400Z 0715/0724 VRB02KT CAVOK

Wetterbeobachtungen und Prognosen von mehr als 4000 Flughäfen (METAR und TAF Bericht).

Die verfügbaren Stationen werden durch gelbe und rote Markierungen auf der Karte dargestellt.

Führen Sie die Maus auf sie, um den Namen der Station zu sehen.

Darauf klicken, um die Beobachtung von Wetterbeobachtungen und Prognosen zu sehen.

Um die Karte zu ändern : klicken Sie auf den grünen Tasten mit einem schwarzen Kreuz Zum Vergrößern, auf den grünen Button mit einem Gedankenstrich zu verkleinern, oder auf die grünen Pfeile für benachbarte Karten.


METAR-TAF: